AirNav   Everest Fuels
 
 1413 users online  

MU21 Miller Farm Airport
Bay, Missouri, USA

GOING TO BAY?


FAA INFORMATION EFFECTIVE 01 DECEMBER 2022

Location

FAA Identifier: MU21
Lat/Long: 38-31-25.1680N 091-31-03.5860W
38-31.419467N 091-31.059767W
38.5236578,-91.5176628
(estimated)
Elevation: 630 ft. / 192 m (estimated)
Variation: 03E (1985)
From city: 2 miles NE of BAY, MO
Time zone: UTC -6 (UTC -5 during Daylight Saving Time)
Zip code: 65041

Airport Operations

Airport use: Private use. Permission required prior to landing
Activation date: 08/1991
Control tower: no
ARTCC: KANSAS CITY CENTER
FSS: SAINT LOUIS FLIGHT SERVICE STATION
Attendance: UNATNDD
Wind indicator: yes
Segmented circle: no

Nearby radio navigation aids

VOR radial/distance  VOR name  Freq  Var
VIHr016/23.9VICHY VOR/DME117.7006E
FTZr243/27.6FORISTELL VORTAC110.8005E
COUr118/37.1COLUMBIA VOR/DME110.2000E

Airport Services

Runway Information

Runway 11/29

Dimensions: 1800 x 50 ft. / 549 x 15 m
Surface: turf
RUNWAY 11  RUNWAY 29
Traffic pattern: leftleft
Obstructions: 50 ft. trees, 50 ft. from runwaynone

Airport Ownership and Management from official FAA records

Ownership: Privately-owned
Owner: MICHAEL W. MILLER
1136 WHITE LAKE DR
ST CHARLES, MO 63301
Phone 314-946-7338
Manager: MICHAEL W. MILLER
1136 WHITE LAKE DR
ST CHARLES, MO 63301
Phone 573-946-7338

Additional Remarks

FOR CD CTC MIZZOU APCH AT 417-868-5620/5619.

Instrument Procedures

There are no published instrument procedures at MU21.

Some nearby airports with instrument procedures:

KUUV - Sullivan Regional Airport (24 nm SE)
KFYG - Washington Regional Airport (25 nm E)
KVIH - Rolla National Airport (27 nm SW)
KUBX - Cuba Municipal Airport (28 nm S)
KFTT - Elton Hensley Memorial Airport (30 nm NW)
 
Loc | Ops | Rwys | IFR | FBO | Links
Com | Nav | Svcs | Stats | Notes
Area around MU21 (Miller Farm Airport)
 
Road maps at: MapQuest Bing Google
 
Aerial photo
No photo
 
Sectional chart

 
Airport distance calculator
Flying to Miller Farm Airport? Find the distance to fly.

From to MU21

Sunrise and sunset
Times for 02-Dec-2022
 Local
(UTC-6)
 Zulu
(UTC)
Morning civil twilight06:3712:37
Sunrise07:0713:07
Sunset16:4422:44
Evening civil twilight17:1423:14

Current date and time
Zulu (UTC)  02-Dec-2022 16:35:24
Local (UTC-6)  02-Dec-2022 10:35:24
 
METAR
KUUV 
24nm SE 
021615Z AUTO 20009G21KT 155V225 10SM OVC023 11/00 A2999 RMK AO2
KFYG 
25nm E 
021615Z AUTO 18017G24KT 10SM BKN030 14/01 A2994 RMK AO2
KVIH 
26nm SW 
021553Z AUTO 19020G28KT 10SM OVC023 12/01 A2995 RMK AO2 PK WND 19028/1548 SLP145 T01170011
KJEF 
30nm W 
021607Z 19015G31KT 10SM OVC030 14/04 A2989 RMK AO2 PK WND 19031/1604 T01440039 $
KCOU 
37nm NW 
021554Z 19017G28KT 10SM OVC027 12/03 A2987 RMK AO2 PK WND 18031/1510 SLP114 T01220028
KMYJ 
41nm N 
021615Z AUTO 20022G25KT 10SM BKN027 12/04 A2984 RMK AO2
KSUS 
41nm E 
021554Z 19015G23KT 10SM OVC028 12/M02 A2994 RMK AO2 SLP141 T01221022
TAF
KJEF 
30nm W 
021454Z 0215/0312 16012G22KT P6SM OVC030 FM021700 20022G39KT P6SM BKN030 FM022300 21015G25KT P6SM BKN035 FM030400 26019G34KT P6SM SCT035 FM030900 32014G24KT P6SM FEW240
KCOU 
37nm NW 
021129Z 0212/0312 17011G17KT P6SM BKN030 FM021700 20022G39KT P6SM BKN030 FM022300 21015G25KT P6SM BKN035 FM030400 26019G34KT P6SM SCT035 FM030900 32014G24KT P6SM FEW240
NOTAMs
Click for the latest NOTAMs
NOTAMs are issued by the DoD/FAA and will open in a separate window not controlled by AirNav.

 

 
 

Would you like to see your business listed on this page?

 If your business provides an interesting product or service to pilots, flight crews, aircraft, or users of the Miller Farm Airport, you should consider listing it here.  To start the listing process, click on the button below
 
Add a business
 

Other Pages about Miller Farm Airport

Update a link
 
Copyright © AirNav, LLC. All rights reserved. Privacy Policy  Contact